sensor_id;sensor_type;location;lat;lon;timestamp;P1;durP1;ratioP1;P2;durP2;ratioP2
15968;SDS011;8085;53.472;9.794;2023-05-07T00:00:03;14.23;;;11.27;;
15968;SDS011;8085;53.472;9.794;2023-05-07T00:02:33;12.93;;;10.57;;
15968;SDS011;8085;53.472;9.794;2023-05-07T00:05:00;16.10;;;10.90;;
15968;SDS011;8085;53.472;9.794;2023-05-07T00:07:27;14.33;;;10.40;;
15968;SDS011;8085;53.472;9.794;2023-05-07T00:09:54;12.47;;;10.17;;
15968;SDS011;8085;53.472;9.794;2023-05-07T00:12:22;12.07;;;9.70;;
15968;SDS011;8085;53.472;9.794;2023-05-07T00:14:49;13.93;;;9.67;;
15968;SDS011;8085;53.472;9.794;2023-05-07T00:17:16;11.83;;;9.47;;
15968;SDS011;8085;53.472;9.794;2023-05-07T00:19:43;10.73;;;8.97;;
15968;SDS011;8085;53.472;9.794;2023-05-07T00:22:10;9.97;;;8.43;;
15968;SDS011;8085;53.472;9.794;2023-05-07T00:24:37;11.37;;;9.07;;
15968;SDS011;8085;53.472;9.794;2023-05-07T00:27:04;10.30;;;8.30;;
15968;SDS011;8085;53.472;9.794;2023-05-07T00:29:32;11.20;;;8.10;;
15968;SDS011;8085;53.472;9.794;2023-05-07T00:31:59;10.47;;;7.90;;
15968;SDS011;8085;53.472;9.794;2023-05-07T00:34:26;11.80;;;8.30;;
15968;SDS011;8085;53.472;9.794;2023-05-07T00:36:53;11.97;;;8.50;;
15968;SDS011;8085;53.472;9.794;2023-05-07T00:39:20;9.40;;;7.47;;
15968;SDS011;8085;53.472;9.794;2023-05-07T00:41:46;11.03;;;7.97;;
15968;SDS011;8085;53.472;9.794;2023-05-07T00:44:13;11.50;;;8.23;;
15968;SDS011;8085;53.472;9.794;2023-05-07T00:46:41;14.03;;;8.10;;
15968;SDS011;8085;53.472;9.794;2023-05-07T00:49:10;9.97;;;8.03;;
15968;SDS011;8085;53.472;9.794;2023-05-07T00:51:37;10.03;;;7.87;;
15968;SDS011;8085;53.472;9.794;2023-05-07T00:54:04;10.23;;;7.93;;
15968;SDS011;8085;53.472;9.794;2023-05-07T00:56:31;9.57;;;7.40;;
15968;SDS011;8085;53.472;9.794;2023-05-07T00:58:58;9.40;;;7.33;;
15968;SDS011;8085;53.472;9.794;2023-05-07T01:01:25;9.60;;;7.03;;
15968;SDS011;8085;53.472;9.794;2023-05-07T01:03:53;8.93;;;6.90;;
15968;SDS011;8085;53.472;9.794;2023-05-07T01:06:20;9.37;;;7.30;;
15968;SDS011;8085;53.472;9.794;2023-05-07T01:08:49;9.93;;;7.40;;
15968;SDS011;8085;53.472;9.794;2023-05-07T01:11:18;8.23;;;7.03;;
15968;SDS011;8085;53.472;9.794;2023-05-07T01:13:45;9.77;;;7.20;;
15968;SDS011;8085;53.472;9.794;2023-05-07T01:16:13;10.80;;;7.03;;
15968;SDS011;8085;53.472;9.794;2023-05-07T01:18:40;7.97;;;6.50;;
15968;SDS011;8085;53.472;9.794;2023-05-07T01:21:08;7.73;;;6.73;;
15968;SDS011;8085;53.472;9.794;2023-05-07T01:23:39;10.47;;;6.70;;
15968;SDS011;8085;53.472;9.794;2023-05-07T01:26:07;9.10;;;6.80;;
15968;SDS011;8085;53.472;9.794;2023-05-07T01:28:34;9.83;;;7.30;;
15968;SDS011;8085;53.472;9.794;2023-05-07T01:31:01;8.50;;;7.30;;
15968;SDS011;8085;53.472;9.794;2023-05-07T01:33:31;8.77;;;6.43;;
15968;SDS011;8085;53.472;9.794;2023-05-07T01:36:01;7.60;;;6.60;;
15968;SDS011;8085;53.472;9.794;2023-05-07T01:38:31;9.53;;;7.40;;
15968;SDS011;8085;53.472;9.794;2023-05-07T01:41:00;9.53;;;6.63;;
15968;SDS011;8085;53.472;9.794;2023-05-07T01:43:28;7.50;;;6.43;;
15968;SDS011;8085;53.472;9.794;2023-05-07T01:45:55;8.50;;;6.63;;
15968;SDS011;8085;53.472;9.794;2023-05-07T01:48:24;7.63;;;6.63;;
15968;SDS011;8085;53.472;9.794;2023-05-07T01:50:51;8.27;;;6.97;;
15968;SDS011;8085;53.472;9.794;2023-05-07T01:53:19;7.97;;;6.30;;
15968;SDS011;8085;53.472;9.794;2023-05-07T01:55:46;9.60;;;6.17;;
15968;SDS011;8085;53.472;9.794;2023-05-07T01:58:14;7.87;;;6.60;;
15968;SDS011;8085;53.472;9.794;2023-05-07T02:00:41;7.53;;;6.43;;
15968;SDS011;8085;53.472;9.794;2023-05-07T02:03:08;8.10;;;6.70;;
15968;SDS011;8085;53.472;9.794;2023-05-07T02:05:35;8.27;;;7.00;;
15968;SDS011;8085;53.472;9.794;2023-05-07T02:08:02;8.33;;;7.30;;
15968;SDS011;8085;53.472;9.794;2023-05-07T02:10:29;7.87;;;6.73;;
15968;SDS011;8085;53.472;9.794;2023-05-07T02:12:56;7.27;;;6.43;;
15968;SDS011;8085;53.472;9.794;2023-05-07T02:15:24;8.83;;;6.47;;
15968;SDS011;8085;53.472;9.794;2023-05-07T02:17:58;8.40;;;6.73;;
15968;SDS011;8085;53.472;9.794;2023-05-07T02:20:26;7.63;;;6.43;;
15968;SDS011;8085;53.472;9.794;2023-05-07T02:22:53;9.03;;;6.77;;
15968;SDS011;8085;53.472;9.794;2023-05-07T02:25:19;7.17;;;6.27;;
15968;SDS011;8085;53.472;9.794;2023-05-07T02:27:46;8.27;;;6.30;;
15968;SDS011;8085;53.472;9.794;2023-05-07T02:30:13;7.73;;;6.50;;
15968;SDS011;8085;53.472;9.794;2023-05-07T02:32:42;7.47;;;6.40;;
15968;SDS011;8085;53.472;9.794;2023-05-07T02:35:09;8.17;;;6.57;;
15968;SDS011;8085;53.472;9.794;2023-05-07T02:37:36;7.43;;;6.17;;
15968;SDS011;8085;53.472;9.794;2023-05-07T02:40:03;8.40;;;6.47;;
15968;SDS011;8085;53.472;9.794;2023-05-07T02:42:31;7.77;;;6.50;;
15968;SDS011;8085;53.472;9.794;2023-05-07T02:44:58;7.43;;;6.57;;
15968;SDS011;8085;53.472;9.794;2023-05-07T02:47:25;9.20;;;7.10;;
15968;SDS011;8085;53.472;9.794;2023-05-07T02:49:55;9.63;;;7.30;;
15968;SDS011;8085;53.472;9.794;2023-05-07T02:52:22;7.67;;;6.60;;
15968;SDS011;8085;53.472;9.794;2023-05-07T02:54:48;8.10;;;6.80;;
15968;SDS011;8085;53.472;9.794;2023-05-07T02:57:15;8.10;;;6.70;;
15968;SDS011;8085;53.472;9.794;2023-05-07T02:59:42;9.40;;;7.20;;
15968;SDS011;8085;53.472;9.794;2023-05-07T03:02:09;7.80;;;7.00;;
15968;SDS011;8085;53.472;9.794;2023-05-07T03:04:36;8.37;;;6.93;;
15968;SDS011;8085;53.472;9.794;2023-05-07T03:07:05;7.90;;;7.10;;
15968;SDS011;8085;53.472;9.794;2023-05-07T03:09:32;8.10;;;7.30;;
15968;SDS011;8085;53.472;9.794;2023-05-07T03:11:59;8.17;;;7.00;;
15968;SDS011;8085;53.472;9.794;2023-05-07T03:14:26;9.40;;;7.20;;
15968;SDS011;8085;53.472;9.794;2023-05-07T03:16:53;9.10;;;7.20;;
15968;SDS011;8085;53.472;9.794;2023-05-07T03:19:20;8.73;;;7.67;;
15968;SDS011;8085;53.472;9.794;2023-05-07T03:21:47;10.37;;;7.13;;
15968;SDS011;8085;53.472;9.794;2023-05-07T03:24:15;8.53;;;7.60;;
15968;SDS011;8085;53.472;9.794;2023-05-07T03:26:42;10.63;;;7.90;;
15968;SDS011;8085;53.472;9.794;2023-05-07T03:29:09;10.53;;;8.07;;
15968;SDS011;8085;53.472;9.794;2023-05-07T03:31:36;9.33;;;7.63;;
15968;SDS011;8085;53.472;9.794;2023-05-07T03:34:03;11.00;;;8.47;;
15968;SDS011;8085;53.472;9.794;2023-05-07T03:36:30;10.00;;;8.27;;
15968;SDS011;8085;53.472;9.794;2023-05-07T03:38:57;9.20;;;7.60;;
15968;SDS011;8085;53.472;9.794;2023-05-07T03:41:26;10.23;;;7.80;;
15968;SDS011;8085;53.472;9.794;2023-05-07T03:43:54;10.53;;;8.43;;
15968;SDS011;8085;53.472;9.794;2023-05-07T03:46:21;9.87;;;8.73;;
15968;SDS011;8085;53.472;9.794;2023-05-07T03:48:51;11.47;;;8.80;;
15968;SDS011;8085;53.472;9.794;2023-05-07T03:51:17;10.40;;;8.10;;
15968;SDS011;8085;53.472;9.794;2023-05-07T03:53:45;11.47;;;8.23;;
15968;SDS011;8085;53.472;9.794;2023-05-07T03:56:12;9.77;;;7.80;;
15968;SDS011;8085;53.472;9.794;2023-05-07T03:58:40;9.60;;;8.10;;
15968;SDS011;8085;53.472;9.794;2023-05-07T04:01:07;10.70;;;8.47;;
15968;SDS011;8085;53.472;9.794;2023-05-07T04:03:34;10.83;;;8.70;;
15968;SDS011;8085;53.472;9.794;2023-05-07T04:06:01;9.63;;;8.13;;
15968;SDS011;8085;53.472;9.794;2023-05-07T04:08:27;10.13;;;7.73;;
15968;SDS011;8085;53.472;9.794;2023-05-07T04:10:55;11.33;;;7.93;;
15968;SDS011;8085;53.472;9.794;2023-05-07T04:13:22;10.97;;;8.03;;
15968;SDS011;8085;53.472;9.794;2023-05-07T04:15:50;11.33;;;8.60;;
15968;SDS011;8085;53.472;9.794;2023-05-07T04:18:17;10.67;;;8.30;;
15968;SDS011;8085;53.472;9.794;2023-05-07T04:20:44;10.57;;;8.43;;
15968;SDS011;8085;53.472;9.794;2023-05-07T04:23:11;11.47;;;8.93;;
15968;SDS011;8085;53.472;9.794;2023-05-07T04:25:37;11.13;;;8.63;;
15968;SDS011;8085;53.472;9.794;2023-05-07T04:28:04;10.33;;;8.57;;
15968;SDS011;8085;53.472;9.794;2023-05-07T04:30:31;11.30;;;8.73;;
15968;SDS011;8085;53.472;9.794;2023-05-07T04:32:59;10.13;;;8.47;;
15968;SDS011;8085;53.472;9.794;2023-05-07T04:35:26;11.73;;;8.03;;
15968;SDS011;8085;53.472;9.794;2023-05-07T04:37:53;10.30;;;8.30;;
15968;SDS011;8085;53.472;9.794;2023-05-07T04:40:20;9.97;;;8.07;;
15968;SDS011;8085;53.472;9.794;2023-05-07T04:42:47;9.67;;;8.23;;
15968;SDS011;8085;53.472;9.794;2023-05-07T04:45:14;11.70;;;8.13;;
15968;SDS011;8085;53.472;9.794;2023-05-07T04:47:41;9.80;;;7.90;;
15968;SDS011;8085;53.472;9.794;2023-05-07T04:50:10;11.30;;;8.47;;
15968;SDS011;8085;53.472;9.794;2023-05-07T04:52:36;9.77;;;8.03;;
15968;SDS011;8085;53.472;9.794;2023-05-07T04:55:04;10.97;;;7.97;;
15968;SDS011;8085;53.472;9.794;2023-05-07T04:57:31;9.47;;;8.43;;
15968;SDS011;8085;53.472;9.794;2023-05-07T04:59:58;10.47;;;8.03;;
15968;SDS011;8085;53.472;9.794;2023-05-07T05:02:25;9.93;;;7.93;;
15968;SDS011;8085;53.472;9.794;2023-05-07T05:04:52;10.30;;;7.60;;
15968;SDS011;8085;53.472;9.794;2023-05-07T05:07:20;12.47;;;8.27;;
15968;SDS011;8085;53.472;9.794;2023-05-07T05:09:47;12.20;;;8.80;;
15968;SDS011;8085;53.472;9.794;2023-05-07T05:12:14;10.07;;;7.97;;
15968;SDS011;8085;53.472;9.794;2023-05-07T05:14:40;13.60;;;8.53;;
15968;SDS011;8085;53.472;9.794;2023-05-07T05:17:08;10.70;;;8.50;;
15968;SDS011;8085;53.472;9.794;2023-05-07T05:19:34;10.90;;;8.30;;
15968;SDS011;8085;53.472;9.794;2023-05-07T05:22:01;11.57;;;9.00;;
15968;SDS011;8085;53.472;9.794;2023-05-07T05:24:30;12.33;;;9.10;;
15968;SDS011;8085;53.472;9.794;2023-05-07T05:26:57;10.20;;;7.97;;
15968;SDS011;8085;53.472;9.794;2023-05-07T05:29:25;9.60;;;7.80;;
15968;SDS011;8085;53.472;9.794;2023-05-07T05:31:51;11.13;;;8.53;;
15968;SDS011;8085;53.472;9.794;2023-05-07T05:34:18;10.73;;;8.70;;
15968;SDS011;8085;53.472;9.794;2023-05-07T05:36:46;11.63;;;8.40;;
15968;SDS011;8085;53.472;9.794;2023-05-07T05:39:13;11.63;;;8.57;;
15968;SDS011;8085;53.472;9.794;2023-05-07T05:41:42;11.23;;;8.77;;
15968;SDS011;8085;53.472;9.794;2023-05-07T05:44:09;10.07;;;8.87;;
15968;SDS011;8085;53.472;9.794;2023-05-07T05:46:35;10.00;;;8.37;;
15968;SDS011;8085;53.472;9.794;2023-05-07T05:49:02;13.50;;;8.00;;
15968;SDS011;8085;53.472;9.794;2023-05-07T05:51:29;11.67;;;8.80;;
15968;SDS011;8085;53.472;9.794;2023-05-07T05:53:56;10.27;;;8.43;;
15968;SDS011;8085;53.472;9.794;2023-05-07T05:56:23;10.50;;;8.17;;
15968;SDS011;8085;53.472;9.794;2023-05-07T05:58:52;10.70;;;8.27;;
15968;SDS011;8085;53.472;9.794;2023-05-07T06:01:19;10.90;;;8.80;;
15968;SDS011;8085;53.472;9.794;2023-05-07T06:03:46;11.97;;;8.80;;
15968;SDS011;8085;53.472;9.794;2023-05-07T06:06:13;12.77;;;8.03;;
15968;SDS011;8085;53.472;9.794;2023-05-07T06:08:40;10.63;;;8.20;;
15968;SDS011;8085;53.472;9.794;2023-05-07T06:11:07;12.27;;;8.80;;
15968;SDS011;8085;53.472;9.794;2023-05-07T06:13:34;10.67;;;8.50;;
15968;SDS011;8085;53.472;9.794;2023-05-07T06:16:03;10.00;;;7.57;;
15968;SDS011;8085;53.472;9.794;2023-05-07T06:18:30;9.70;;;7.80;;
15968;SDS011;8085;53.472;9.794;2023-05-07T06:20:57;10.83;;;8.40;;
15968;SDS011;8085;53.472;9.794;2023-05-07T06:23:24;11.10;;;7.77;;
15968;SDS011;8085;53.472;9.794;2023-05-07T06:25:51;10.60;;;8.23;;
15968;SDS011;8085;53.472;9.794;2023-05-07T06:28:18;9.90;;;7.20;;
15968;SDS011;8085;53.472;9.794;2023-05-07T06:30:45;10.20;;;7.53;;
15968;SDS011;8085;53.472;9.794;2023-05-07T06:33:13;9.73;;;7.50;;
15968;SDS011;8085;53.472;9.794;2023-05-07T06:35:40;8.47;;;7.40;;
15968;SDS011;8085;53.472;9.794;2023-05-07T06:38:07;10.13;;;7.33;;
15968;SDS011;8085;53.472;9.794;2023-05-07T06:40:34;8.43;;;6.93;;
15968;SDS011;8085;53.472;9.794;2023-05-07T06:43:01;9.17;;;6.83;;
15968;SDS011;8085;53.472;9.794;2023-05-07T06:45:27;8.80;;;6.80;;
15968;SDS011;8085;53.472;9.794;2023-05-07T06:47:54;9.30;;;7.07;;
15968;SDS011;8085;53.472;9.794;2023-05-07T06:50:22;7.90;;;7.10;;
15968;SDS011;8085;53.472;9.794;2023-05-07T06:52:49;10.13;;;6.80;;
15968;SDS011;8085;53.472;9.794;2023-05-07T06:55:16;8.97;;;6.83;;
15968;SDS011;8085;53.472;9.794;2023-05-07T06:57:44;9.13;;;7.10;;
15968;SDS011;8085;53.472;9.794;2023-05-07T07:00:11;10.93;;;7.17;;
15968;SDS011;8085;53.472;9.794;2023-05-07T07:02:39;9.83;;;7.10;;
15968;SDS011;8085;53.472;9.794;2023-05-07T07:05:06;9.57;;;7.33;;
15968;SDS011;8085;53.472;9.794;2023-05-07T07:07:35;10.43;;;7.20;;
15968;SDS011;8085;53.472;9.794;2023-05-07T07:10:02;9.30;;;6.27;;
15968;SDS011;8085;53.472;9.794;2023-05-07T07:12:29;8.07;;;6.70;;
15968;SDS011;8085;53.472;9.794;2023-05-07T07:14:56;10.87;;;6.77;;
15968;SDS011;8085;53.472;9.794;2023-05-07T07:17:23;7.57;;;6.30;;
15968;SDS011;8085;53.472;9.794;2023-05-07T07:19:56;7.77;;;6.40;;
15968;SDS011;8085;53.472;9.794;2023-05-07T07:22:25;7.67;;;6.07;;
15968;SDS011;8085;53.472;9.794;2023-05-07T07:24:54;10.30;;;6.67;;
15968;SDS011;8085;53.472;9.794;2023-05-07T07:27:20;9.33;;;6.80;;
15968;SDS011;8085;53.472;9.794;2023-05-07T07:29:47;9.47;;;6.40;;
15968;SDS011;8085;53.472;9.794;2023-05-07T07:32:14;9.43;;;6.53;;
15968;SDS011;8085;53.472;9.794;2023-05-07T07:34:41;8.83;;;6.17;;
15968;SDS011;8085;53.472;9.794;2023-05-07T07:37:08;7.77;;;6.00;;
15968;SDS011;8085;53.472;9.794;2023-05-07T07:39:35;10.10;;;6.67;;
15968;SDS011;8085;53.472;9.794;2023-05-07T07:42:05;8.97;;;6.40;;
15968;SDS011;8085;53.472;9.794;2023-05-07T07:44:32;10.00;;;6.43;;
15968;SDS011;8085;53.472;9.794;2023-05-07T07:46:59;9.93;;;6.13;;
15968;SDS011;8085;53.472;9.794;2023-05-07T07:49:26;8.87;;;6.53;;
15968;SDS011;8085;53.472;9.794;2023-05-07T07:51:53;7.10;;;5.50;;
15968;SDS011;8085;53.472;9.794;2023-05-07T07:54:21;9.97;;;6.27;;
15968;SDS011;8085;53.472;9.794;2023-05-07T07:56:48;7.20;;;5.53;;
15968;SDS011;8085;53.472;9.794;2023-05-07T07:59:17;6.97;;;5.70;;
15968;SDS011;8085;53.472;9.794;2023-05-07T08:01:45;7.90;;;5.53;;
15968;SDS011;8085;53.472;9.794;2023-05-07T08:04:13;7.70;;;5.80;;
15968;SDS011;8085;53.472;9.794;2023-05-07T08:06:40;9.70;;;5.90;;
15968;SDS011;8085;53.472;9.794;2023-05-07T08:09:07;7.07;;;4.90;;
15968;SDS011;8085;53.472;9.794;2023-05-07T08:11:34;8.40;;;5.63;;
15968;SDS011;8085;53.472;9.794;2023-05-07T08:14:03;6.70;;;5.20;;
15968;SDS011;8085;53.472;9.794;2023-05-07T08:16:32;7.67;;;5.60;;
15968;SDS011;8085;53.472;9.794;2023-05-07T08:18:58;7.43;;;5.47;;
15968;SDS011;8085;53.472;9.794;2023-05-07T08:21:25;7.23;;;5.10;;
15968;SDS011;8085;53.472;9.794;2023-05-07T08:23:52;10.67;;;5.30;;
15968;SDS011;8085;53.472;9.794;2023-05-07T08:26:19;8.33;;;5.60;;
15968;SDS011;8085;53.472;9.794;2023-05-07T08:28:46;7.73;;;5.13;;
15968;SDS011;8085;53.472;9.794;2023-05-07T08:31:13;8.37;;;5.37;;
15968;SDS011;8085;53.472;9.794;2023-05-07T08:33:42;6.87;;;5.83;;
15968;SDS011;8085;53.472;9.794;2023-05-07T08:36:08;9.00;;;5.50;;
15968;SDS011;8085;53.472;9.794;2023-05-07T08:38:35;7.00;;;5.30;;
15968;SDS011;8085;53.472;9.794;2023-05-07T08:41:02;7.67;;;5.30;;
15968;SDS011;8085;53.472;9.794;2023-05-07T08:43:29;6.93;;;4.90;;
15968;SDS011;8085;53.472;9.794;2023-05-07T08:46:00;9.47;;;5.57;;
15968;SDS011;8085;53.472;9.794;2023-05-07T08:48:28;7.27;;;5.70;;
15968;SDS011;8085;53.472;9.794;2023-05-07T08:50:58;6.83;;;5.07;;
15968;SDS011;8085;53.472;9.794;2023-05-07T08:53:25;7.97;;;5.33;;
15968;SDS011;8085;53.472;9.794;2023-05-07T08:55:52;6.10;;;4.80;;
15968;SDS011;8085;53.472;9.794;2023-05-07T08:58:19;6.20;;;4.97;;
15968;SDS011;8085;53.472;9.794;2023-05-07T09:00:46;6.13;;;5.10;;
15968;SDS011;8085;53.472;9.794;2023-05-07T09:03:13;7.53;;;4.97;;
15968;SDS011;8085;53.472;9.794;2023-05-07T09:05:40;6.07;;;4.80;;
15968;SDS011;8085;53.472;9.794;2023-05-07T09:08:10;7.93;;;5.37;;
15968;SDS011;8085;53.472;9.794;2023-05-07T09:10:41;6.40;;;4.67;;
15968;SDS011;8085;53.472;9.794;2023-05-07T09:13:08;6.63;;;4.73;;
15968;SDS011;8085;53.472;9.794;2023-05-07T09:15:38;5.37;;;4.40;;
15968;SDS011;8085;53.472;9.794;2023-05-07T09:18:05;8.73;;;5.60;;
15968;SDS011;8085;53.472;9.794;2023-05-07T09:20:31;6.37;;;4.60;;
15968;SDS011;8085;53.472;9.794;2023-05-07T09:22:58;5.83;;;4.47;;
15968;SDS011;8085;53.472;9.794;2023-05-07T09:25:29;4.80;;;4.00;;
15968;SDS011;8085;53.472;9.794;2023-05-07T09:27:57;6.00;;;4.13;;
15968;SDS011;8085;53.472;9.794;2023-05-07T09:30:27;6.33;;;4.37;;
15968;SDS011;8085;53.472;9.794;2023-05-07T09:32:54;5.70;;;4.13;;
15968;SDS011;8085;53.472;9.794;2023-05-07T09:35:21;7.50;;;4.13;;
15968;SDS011;8085;53.472;9.794;2023-05-07T09:37:49;5.17;;;3.80;;
15968;SDS011;8085;53.472;9.794;2023-05-07T09:40:22;6.67;;;4.07;;
15968;SDS011;8085;53.472;9.794;2023-05-07T09:42:52;4.77;;;3.90;;
15968;SDS011;8085;53.472;9.794;2023-05-07T09:45:22;4.27;;;3.87;;
15968;SDS011;8085;53.472;9.794;2023-05-07T09:47:49;6.03;;;3.83;;
15968;SDS011;8085;53.472;9.794;2023-05-07T09:50:22;5.33;;;4.43;;
15968;SDS011;8085;53.472;9.794;2023-05-07T09:52:53;5.07;;;4.40;;
15968;SDS011;8085;53.472;9.794;2023-05-07T09:55:20;5.67;;;4.63;;
15968;SDS011;8085;53.472;9.794;2023-05-07T09:57:48;6.00;;;4.43;;
15968;SDS011;8085;53.472;9.794;2023-05-07T10:00:18;5.60;;;4.30;;
15968;SDS011;8085;53.472;9.794;2023-05-07T10:02:46;5.63;;;4.50;;
15968;SDS011;8085;53.472;9.794;2023-05-07T10:05:14;5.07;;;4.37;;
15968;SDS011;8085;53.472;9.794;2023-05-07T10:07:42;4.87;;;3.97;;
15968;SDS011;8085;53.472;9.794;2023-05-07T10:10:10;6.57;;;4.53;;
15968;SDS011;8085;53.472;9.794;2023-05-07T10:12:38;5.27;;;4.20;;
15968;SDS011;8085;53.472;9.794;2023-05-07T10:15:08;6.07;;;4.30;;
15968;SDS011;8085;53.472;9.794;2023-05-07T10:17:36;5.50;;;4.63;;
15968;SDS011;8085;53.472;9.794;2023-05-07T10:20:03;5.37;;;4.57;;
15968;SDS011;8085;53.472;9.794;2023-05-07T10:22:32;6.63;;;4.90;;
15968;SDS011;8085;53.472;9.794;2023-05-07T10:25:04;6.97;;;5.33;;
15968;SDS011;8085;53.472;9.794;2023-05-07T10:27:36;6.90;;;4.90;;
15968;SDS011;8085;53.472;9.794;2023-05-07T10:30:06;6.00;;;4.40;;
15968;SDS011;8085;53.472;9.794;2023-05-07T10:32:42;6.37;;;5.07;;
15968;SDS011;8085;53.472;9.794;2023-05-07T10:35:14;6.17;;;5.20;;
15968;SDS011;8085;53.472;9.794;2023-05-07T10:37:44;6.67;;;5.00;;
15968;SDS011;8085;53.472;9.794;2023-05-07T10:40:12;5.70;;;4.70;;
15968;SDS011;8085;53.472;9.794;2023-05-07T10:42:49;6.43;;;4.90;;
15968;SDS011;8085;53.472;9.794;2023-05-07T10:45:22;6.63;;;5.30;;
15968;SDS011;8085;53.472;9.794;2023-05-07T10:48:05;6.43;;;5.47;;
15968;SDS011;8085;53.472;9.794;2023-05-07T10:50:32;8.90;;;5.47;;
15968;SDS011;8085;53.472;9.794;2023-05-07T10:58:55;6.70;;;5.63;;
15968;SDS011;8085;53.472;9.794;2023-05-07T11:01:50;7.37;;;5.40;;
15968;SDS011;8085;53.472;9.794;2023-05-07T11:04:19;10.33;;;5.23;;
15968;SDS011;8085;53.472;9.794;2023-05-07T11:09:58;8.17;;;5.77;;
15968;SDS011;8085;53.472;9.794;2023-05-07T11:12:48;7.03;;;5.97;;
15968;SDS011;8085;53.472;9.794;2023-05-07T11:15:38;8.27;;;5.73;;
15968;SDS011;8085;53.472;9.794;2023-05-07T11:18:08;7.60;;;5.53;;
15968;SDS011;8085;53.472;9.794;2023-05-07T11:20:49;8.63;;;5.80;;
15968;SDS011;8085;53.472;9.794;2023-05-07T11:26:18;6.87;;;5.07;;
15968;SDS011;8085;53.472;9.794;2023-05-07T11:28:45;6.40;;;5.10;;
15968;SDS011;8085;53.472;9.794;2023-05-07T11:31:12;7.80;;;5.00;;
15968;SDS011;8085;53.472;9.794;2023-05-07T11:33:43;7.23;;;5.40;;
15968;SDS011;8085;53.472;9.794;2023-05-07T11:36:10;9.07;;;5.50;;
15968;SDS011;8085;53.472;9.794;2023-05-07T11:38:37;7.50;;;5.17;;
15968;SDS011;8085;53.472;9.794;2023-05-07T11:41:04;5.97;;;5.17;;
15968;SDS011;8085;53.472;9.794;2023-05-07T11:43:32;6.73;;;5.27;;
15968;SDS011;8085;53.472;9.794;2023-05-07T11:46:07;8.00;;;5.27;;
15968;SDS011;8085;53.472;9.794;2023-05-07T11:48:35;7.03;;;5.10;;
15968;SDS011;8085;53.472;9.794;2023-05-07T11:51:04;7.83;;;4.43;;
15968;SDS011;8085;53.472;9.794;2023-05-07T11:53:37;7.57;;;5.20;;
15968;SDS011;8085;53.472;9.794;2023-05-07T11:56:08;6.77;;;4.30;;
15968;SDS011;8085;53.472;9.794;2023-05-07T11:58:35;5.47;;;4.77;;
15968;SDS011;8085;53.472;9.794;2023-05-07T12:01:02;6.27;;;4.90;;
15968;SDS011;8085;53.472;9.794;2023-05-07T12:03:30;5.90;;;4.67;;
15968;SDS011;8085;53.472;9.794;2023-05-07T12:05:57;5.47;;;4.57;;
15968;SDS011;8085;53.472;9.794;2023-05-07T12:08:27;6.20;;;4.10;;
15968;SDS011;8085;53.472;9.794;2023-05-07T12:10:54;6.10;;;4.47;;
15968;SDS011;8085;53.472;9.794;2023-05-07T12:13:21;5.73;;;4.10;;
15968;SDS011;8085;53.472;9.794;2023-05-07T12:15:50;6.40;;;4.33;;
15968;SDS011;8085;53.472;9.794;2023-05-07T12:18:17;5.60;;;4.40;;
15968;SDS011;8085;53.472;9.794;2023-05-07T12:20:44;7.10;;;4.50;;
15968;SDS011;8085;53.472;9.794;2023-05-07T12:23:12;4.47;;;4.03;;
15968;SDS011;8085;53.472;9.794;2023-05-07T12:25:42;5.63;;;4.33;;
15968;SDS011;8085;53.472;9.794;2023-05-07T12:28:12;6.13;;;4.00;;
15968;SDS011;8085;53.472;9.794;2023-05-07T12:30:40;4.33;;;3.50;;
15968;SDS011;8085;53.472;9.794;2023-05-07T12:33:08;6.47;;;3.57;;
15968;SDS011;8085;53.472;9.794;2023-05-07T12:35:37;5.20;;;3.60;;
15968;SDS011;8085;53.472;9.794;2023-05-07T12:38:07;4.80;;;3.80;;
15968;SDS011;8085;53.472;9.794;2023-05-07T12:40:36;5.33;;;3.83;;
15968;SDS011;8085;53.472;9.794;2023-05-07T12:43:04;4.20;;;3.60;;
15968;SDS011;8085;53.472;9.794;2023-05-07T12:45:32;4.87;;;3.90;;
15968;SDS011;8085;53.472;9.794;2023-05-07T12:48:04;6.60;;;4.50;;
15968;SDS011;8085;53.472;9.794;2023-05-07T12:50:31;6.50;;;3.60;;
15968;SDS011;8085;53.472;9.794;2023-05-07T12:52:59;4.93;;;3.67;;
15968;SDS011;8085;53.472;9.794;2023-05-07T12:55:28;4.93;;;3.70;;
15968;SDS011;8085;53.472;9.794;2023-05-07T12:57:55;4.47;;;3.47;;
15968;SDS011;8085;53.472;9.794;2023-05-07T13:00:33;4.43;;;3.07;;
15968;SDS011;8085;53.472;9.794;2023-05-07T13:03:01;5.33;;;3.20;;
15968;SDS011;8085;53.472;9.794;2023-05-07T13:05:28;4.53;;;3.70;;
15968;SDS011;8085;53.472;9.794;2023-05-07T13:07:55;6.90;;;3.03;;
15968;SDS011;8085;53.472;9.794;2023-05-07T13:10:22;9.00;;;3.33;;
15968;SDS011;8085;53.472;9.794;2023-05-07T13:12:49;3.30;;;3.00;;
15968;SDS011;8085;53.472;9.794;2023-05-07T13:15:16;3.70;;;2.70;;
15968;SDS011;8085;53.472;9.794;2023-05-07T13:17:45;3.63;;;2.90;;
15968;SDS011;8085;53.472;9.794;2023-05-07T13:20:11;7.60;;;3.43;;
15968;SDS011;8085;53.472;9.794;2023-05-07T13:22:38;3.87;;;3.30;;
15968;SDS011;8085;53.472;9.794;2023-05-07T13:25:06;5.63;;;3.50;;
15968;SDS011;8085;53.472;9.794;2023-05-07T13:27:34;4.57;;;3.37;;
15968;SDS011;8085;53.472;9.794;2023-05-07T13:30:02;5.17;;;3.00;;
15968;SDS011;8085;53.472;9.794;2023-05-07T13:32:30;3.87;;;2.90;;
15968;SDS011;8085;53.472;9.794;2023-05-07T13:34:58;4.03;;;3.03;;
15968;SDS011;8085;53.472;9.794;2023-05-07T13:37:25;4.60;;;2.87;;
15968;SDS011;8085;53.472;9.794;2023-05-07T13:39:55;4.03;;;2.77;;
15968;SDS011;8085;53.472;9.794;2023-05-07T13:42:22;3.73;;;2.93;;
15968;SDS011;8085;53.472;9.794;2023-05-07T13:44:48;3.50;;;2.67;;
15968;SDS011;8085;53.472;9.794;2023-05-07T13:47:16;5.87;;;2.80;;
15968;SDS011;8085;53.472;9.794;2023-05-07T13:49:42;3.13;;;2.50;;
15968;SDS011;8085;53.472;9.794;2023-05-07T13:52:11;4.23;;;2.80;;
15968;SDS011;8085;53.472;9.794;2023-05-07T13:54:38;3.53;;;2.80;;
15968;SDS011;8085;53.472;9.794;2023-05-07T13:57:05;3.40;;;2.73;;
15968;SDS011;8085;53.472;9.794;2023-05-07T13:59:32;4.80;;;2.60;;
15968;SDS011;8085;53.472;9.794;2023-05-07T14:01:59;3.67;;;2.67;;
15968;SDS011;8085;53.472;9.794;2023-05-07T14:04:26;3.77;;;2.80;;
15968;SDS011;8085;53.472;9.794;2023-05-07T14:06:53;5.03;;;2.30;;
15968;SDS011;8085;53.472;9.794;2023-05-07T14:09:21;4.30;;;2.30;;
15968;SDS011;8085;53.472;9.794;2023-05-07T14:11:49;2.70;;;2.40;;
15968;SDS011;8085;53.472;9.794;2023-05-07T14:14:18;2.83;;;2.40;;
15968;SDS011;8085;53.472;9.794;2023-05-07T14:16:45;4.60;;;2.50;;
15968;SDS011;8085;53.472;9.794;2023-05-07T14:19:12;3.87;;;2.60;;
15968;SDS011;8085;53.472;9.794;2023-05-07T14:21:39;3.77;;;2.50;;
15968;SDS011;8085;53.472;9.794;2023-05-07T14:24:06;4.43;;;2.50;;
15968;SDS011;8085;53.472;9.794;2023-05-07T14:26:34;3.73;;;2.40;;
15968;SDS011;8085;53.472;9.794;2023-05-07T14:29:01;3.43;;;2.50;;
15968;SDS011;8085;53.472;9.794;2023-05-07T14:31:28;3.07;;;2.40;;
15968;SDS011;8085;53.472;9.794;2023-05-07T14:33:55;3.53;;;2.13;;
15968;SDS011;8085;53.472;9.794;2023-05-07T14:36:24;2.77;;;2.10;;
15968;SDS011;8085;53.472;9.794;2023-05-07T14:38:51;5.00;;;2.30;;
15968;SDS011;8085;53.472;9.794;2023-05-07T14:41:18;2.73;;;2.33;;
15968;SDS011;8085;53.472;9.794;2023-05-07T14:43:47;2.67;;;2.23;;
15968;SDS011;8085;53.472;9.794;2023-05-07T14:46:15;3.20;;;2.50;;
15968;SDS011;8085;53.472;9.794;2023-05-07T14:48:43;2.80;;;2.20;;
15968;SDS011;8085;53.472;9.794;2023-05-07T14:51:12;3.90;;;2.30;;
15968;SDS011;8085;53.472;9.794;2023-05-07T14:53:41;3.87;;;2.20;;
15968;SDS011;8085;53.472;9.794;2023-05-07T14:56:08;3.07;;;1.93;;
15968;SDS011;8085;53.472;9.794;2023-05-07T14:58:36;4.30;;;2.40;;
15968;SDS011;8085;53.472;9.794;2023-05-07T15:01:04;1.83;;;1.73;;
15968;SDS011;8085;53.472;9.794;2023-05-07T15:03:31;4.43;;;1.90;;
15968;SDS011;8085;53.472;9.794;2023-05-07T15:06:01;3.27;;;2.33;;
15968;SDS011;8085;53.472;9.794;2023-05-07T15:08:28;2.97;;;2.10;;
15968;SDS011;8085;53.472;9.794;2023-05-07T15:10:55;2.67;;;2.40;;
15968;SDS011;8085;53.472;9.794;2023-05-07T15:13:22;4.47;;;2.00;;